Hillburn, New York
Current Conditions -  °F | °C
As of 6:07 PM on Monday 22 Dec 2014 (Local Time) from KCDW Reporting Station
Haze Haze  
Wind Chill: 39°   Ceiling: 600
Heat Index: 39°   Visibility: 3mi
Dew Point: 32°   Wind: 0mph
Humidity: 76%   Direction: NA
Pressure: 30.23"   Gusts: NA
Location:  41.12°N, 74.17°W
Report Text: KCDW 222307Z AUTO 00000KT 3SM HZ OVC006 04/00 A3023 RMK AO2 RAE06 P0000 T00390000 TSNO
Loading
Personal Weather Stations






























Interactive Weather Map New forecast layout! Learn more

10-Day Weather Forecast

Advertisements
Track Severe Weather on mobile